Imagination — C6FN2 — position and weather

sailwx.info

Track history (hours):
 
Tides and Currents Weather Stations Pressure Air Temp Water Temp Dewpoint Dewpoint Depression Visibility Wind Speed Wind Dir Waves Ship Positions

Imagination

Operator: Carnival Cruise Lines

Last reported at 2017-Apr-30 14:29 UTC. Time now 2017-Apr-30 14:53 UTC.
Position N 33°45' W 118°11'.

Type: Ship. MMSI: 309933000.

Date/timePositionNaut miles runAvg speedWind from/ knotsBaromVisibWave heightAir tempDewpointWater temp
2017-Apr-30 14:29N 33°45' W 118°11'0 0.0
2017-Apr-30 13:28N 33°45' W 118°11'0 0.0
2017-Apr-30 12:58N 33°45' W 118°11'0 0.8
2017-Apr-30 12:31N 33°45' W 118°11'4 7.1
2017-Apr-30 12:00N 33°41' W 118°11'510.2
2017-Apr-30 11:31N 33°36' W 118°10'611.4
2017-Apr-30 11:00N 33°31' W 118°07'611.4
2017-Apr-30 10:31N 33°25' W 118°05'611.5
2017-Apr-30 10:01N 33°20' W 118°03'611.8
2017-Apr-30 09:30N 33°14' W 118°01'713.5
2017-Apr-30 09:01N 33°08' W 117°58'815.6
2017-Apr-30 08:30N 33°01' W 117°55'815.7
2017-Apr-30 08:01N 32°53' W 117°52'815.6
2017-Apr-30 07:30N 32°46' W 117°48'815.1
2017-Apr-30 07:00N 32°39' W 117°46'815.2
2017-Apr-30 06:30N 32°32' W 117°43'815.5
2017-Apr-30 06:00N 32°25' W 117°39'815.7
2017-Apr-30 05:30N 32°18' W 117°34'815.3
2017-Apr-30 05:00N 32°12' W 117°28'714.8
2017-Apr-30 04:30N 32°07' W 117°23'714.5
2017-Apr-30 04:00N 32°02' W 117°16'714.8
2017-Apr-30 03:30N 31°59' W 117°08'814.5
2017-Apr-30 02:57N 31°56' W 116°59'613.9
2017-Apr-30 02:30N 31°54' W 116°52'713.8
2017-Apr-30 02:00N 31°51' W 116°45'13 0.9
2017-Apr-29 11:10N 31°51' W 117°00'1 6.3
2017-Apr-29 11:00N 31°51' W 117°01'3 6.2
2017-Apr-29 10:30N 31°50' W 117°05'3 6.1
2017-Apr-29 10:01N 31°50' W 117°08'3 6.3
2017-Apr-29 09:30N 31°49' W 117°12'3 6.2
2017-Apr-29 09:00N 31°48' W 117°16'3 6.3
2017-Apr-29 08:31N 31°48' W 117°19'3 6.5
2017-Apr-29 08:01N 31°47' W 117°23'3 6.1
2017-Apr-29 07:30N 31°46' W 117°26'3 6.3
2017-Apr-29 07:00N 31°46' W 117°30'4 6.3
2017-Apr-29 06:26N 31°45' W 117°34'3 6.3
2017-Apr-29 05:58N 31°44' W 117°38'3 6.3
2017-Apr-29 05:30N 31°43' W 117°41'3 6.4
2017-Apr-29 05:00N 31°43' W 117°44'3 6.6
2017-Apr-29 04:30N 31°41' W 117°48'3 6.4
2017-Apr-29 04:00N 31°38' W 117°49'3 6.6
2017-Apr-29 03:30N 31°34' W 117°49'3 6.6
2017-Apr-29 03:00N 31°31' W 117°49'3 6.7
2017-Apr-29 02:30N 31°28' W 117°50'3 6.9
2017-Apr-29 02:00N 31°25' W 117°52'3 6.5
2017-Apr-29 01:30N 31°22' W 117°53'3 6.7
2017-Apr-29 01:00N 31°21' W 117°57'4 7.0
2017-Apr-29 00:30N 31°22' W 118°01'3 6.4
2017-Apr-29 00:00N 31°22' W 118°05'3 6.5
2017-Apr-28 23:30N 31°22' W 118°09'3 5.9
2017-Apr-28 23:00N 31°24' W 118°12'4 7.1
2017-Apr-28 22:30N 31°28' W 118°12'3 7.0
2017-Apr-28 22:00N 31°31' W 118°13'3 7.0
2017-Apr-28 21:30N 31°34' W 118°13'3 7.0
2017-Apr-28 21:00N 31°38' W 118°13'3 6.9
2017-Apr-28 20:30N 31°41' W 118°12'3 6.8
2017-Apr-28 20:00N 31°44' W 118°10'4 7.4
2017-Apr-28 19:28N 31°47' W 118°08'3 7.4
2017-Apr-28 19:00N 31°51' W 118°06'4 7.2
2017-Apr-28 18:30N 31°54' W 118°05'4 7.1
2017-Apr-28 18:01N 31°57' W 118°03'4 7.1
2017-Apr-28 17:28N 32°01' W 118°02'3 7.1
2017-Apr-28 17:01N 32°04' W 118°00'4233.7
2017-Apr-28 17:00N 32°00' W 118°00'715.2 320 / 201013.710.8 15.011.616.7
2017-Apr-28 16:31N 32°07' W 117°59'4 7.3
2017-Apr-28 15:59N 32°11' W 117°57'4 7.3
2017-Apr-28 15:30N 32°14' W 117°55'4 7.1
2017-Apr-28 15:00N 32°17' W 117°54'7 7.2
2017-Apr-28 14:00N 32°24' W 117°51'4 7.1
2017-Apr-28 13:31N 32°27' W 117°50'3 7.0
2017-Apr-28 13:00N 32°31' W 117°48'3 6.9
2017-Apr-28 12:31N 32°34' W 117°47'3 6.9
2017-Apr-28 12:01N 32°37' W 117°46'4 7.1
2017-Apr-28 11:30N 32°41' W 117°47'4 7.1
2017-Apr-28 11:00N 32°44' W 117°47'3 7.0
2017-Apr-28 10:30N 32°48' W 117°48'3 7.0
2017-Apr-28 10:01N 32°51' W 117°49'4 7.0
2017-Apr-28 09:30N 32°54' W 117°50'3 6.9
2017-Apr-28 09:00N 32°58' W 117°52'3 6.9
2017-Apr-28 08:31N 33°01' W 117°54'3 6.7
2017-Apr-28 08:01N 33°03' W 117°56'4 7.1
2017-Apr-28 07:31N 33°07' W 117°58'4 7.1
2017-Apr-28 07:00N 33°10' W 118°00'3 7.0
2017-Apr-28 06:30N 33°13' W 118°02'3 6.9
2017-Apr-28 06:00N 33°16' W 118°04'3 7.0
2017-Apr-28 05:30N 33°19' W 118°06'3 6.9
2017-Apr-28 05:01N 33°22' W 118°08'4 7.0
2017-Apr-28 04:30N 33°25' W 118°09'3 7.0
2017-Apr-28 04:00N 33°29' W 118°10'3 7.0
2017-Apr-28 03:31N 33°32' W 118°12'5 9.2
2017-Apr-28 03:01N 33°36' W 118°13'611.1
2017-Apr-28 02:30N 33°42' W 118°11'3 5.8
2017-Apr-28 01:57N 33°45' W 118°11'0 0.0
2017-Apr-28 01:27N 33°45' W 118°11'0 0.0
2017-Apr-28 00:57N 33°45' W 118°11'0 0.0
2017-Apr-28 00:30N 33°45' W 118°11'0 0.0
2017-Apr-27 23:56N 33°45' W 118°11'0 0.0
2017-Apr-27 23:23N 33°45' W 118°11'0 0.0
2017-Apr-27 22:59N 33°45' W 118°11'0 0.0
2017-Apr-27 22:29N 33°45' W 118°11'0 0.0
2017-Apr-27 21:58N 33°45' W 118°11'0 0.0
2017-Apr-27 21:28N 33°45' W 118°11'0 0.0
2017-Apr-27 20:58N 33°45' W 118°11'0 0.0
2017-Apr-27 20:28N 33°45' W 118°11'0 0.0
2017-Apr-27 19:58N 33°45' W 118°11'0 0.0
2017-Apr-27 19:27N 33°45' W 118°11'0 0.0
2017-Apr-27 18:57N 33°45' W 118°11'0 0.0
2017-Apr-27 15:33N 33°45' W 118°11'0 0.0
2017-Apr-27 15:21N 33°45' W 118°11'0 0.0
2017-Apr-27 14:57N 33°45' W 118°11'0 0.0
2017-Apr-27 13:45N 33°45' W 118°11'0 0.0
2017-Apr-27 13:14N 33°45' W 118°11'0 0.0
2017-Apr-27 12:56N 33°45' W 118°11'0 0.7
2017-Apr-27 12:30N 33°45' W 118°11'4 7.9
2017-Apr-27 12:00N 33°41' W 118°11'5 9.7
2017-Apr-27 11:30N 33°36' W 118°10'611.5
2017-Apr-27 11:00N 33°31' W 118°07'611.7
2017-Apr-27 10:30N 33°25' W 118°05'611.8
2017-Apr-27 10:00N 33°20' W 118°02'815.3
2017-Apr-27 09:31N 33°13' W 117°59'815.1
2017-Apr-27 09:01N 33°06' W 117°56'714.7
2017-Apr-27 08:31N 32°59' W 117°52'714.5
2017-Apr-27 08:01N 32°53' W 117°48'714.0
2017-Apr-27 07:30N 32°46' W 117°47'714.2
2017-Apr-27 07:00N 32°39' W 117°46'714.2
2017-Apr-27 06:31N 32°32' W 117°43'714.4
2017-Apr-27 06:00N 32°25' W 117°39'714.9
2017-Apr-27 05:31N 32°19' W 117°35'1215.1
2017-Apr-27 04:42N 32°10' W 117°26'314.7
2017-Apr-27 04:30N 32°08' W 117°23'814.6
2017-Apr-27 03:59N 32°02' W 117°17'15 0.9
2017-Apr-26 11:12N 31°57' W 117°00'3 7.3
2017-Apr-26 10:49N 31°58' W 117°03'3 8.1
2017-Apr-26 10:30N 31°59' W 117°06'5 9.9
2017-Apr-26 10:00N 32°01' W 117°12'5 9.8
2017-Apr-26 09:30N 32°03' W 117°16'5 9.8
2017-Apr-26 09:00N 32°07' W 117°21'5 9.4
2017-Apr-26 08:30N 32°10' W 117°25'5 9.4
2017-Apr-26 08:00N 32°13' W 117°29'5 9.5
2017-Apr-26 07:31N 32°16' W 117°33'5 9.2
2017-Apr-26 07:00N 32°20' W 117°36'5 9.7
2017-Apr-26 06:30N 32°24' W 117°39'510.0
2017-Apr-26 06:00N 32°28' W 117°42'510.0
2017-Apr-26 05:30N 32°32' W 117°46'5 9.8
2017-Apr-26 05:00N 32°36' W 117°49'510.0
2017-Apr-26 04:30N 32°41' W 117°51'510.2
2017-Apr-26 04:00N 32°46' W 117°53'510.3
2017-Apr-26 03:30N 32°50' W 117°56'510.3
2017-Apr-26 03:00N 32°55' W 117°59'510.0
2017-Apr-26 02:30N 32°59' W 118°02'510.2
2017-Apr-26 02:00N 33°04' W 118°05'510.0
2017-Apr-26 01:30N 33°08' W 118°08'5 9.9
2017-Apr-26 01:00N 33°12' W 118°11'5 9.8
2017-Apr-26 00:30N 33°17' W 118°13'5 9.8
2017-Apr-26 00:00N 33°20' W 118°18'1 2.1
2017-Apr-25 23:22N 33°21' W 118°19'0 0.0
2017-Apr-25 22:55N 33°21' W 118°19'0 0.0
2017-Apr-25 22:28N 33°21' W 118°19'0 0.1
2017-Apr-25 22:00N 33°21' W 118°19'0 0.1
2017-Apr-25 21:27N 33°21' W 118°19'0 0.1
2017-Apr-25 21:00N 33°21' W 118°19'0 0.0
2017-Apr-25 20:30N 33°21' W 118°19'0 0.1
2017-Apr-25 20:00N 33°21' W 118°19'0 0.0
2017-Apr-25 19:29N 33°21' W 118°19'0 0.0
2017-Apr-25 18:59N 33°21' W 118°19'0 0.0
2017-Apr-25 18:29N 33°21' W 118°19'0 0.0
2017-Apr-25 17:59N 33°21' W 118°19'0 0.0
2017-Apr-25 17:29N 33°21' W 118°19'0 0.0
2017-Apr-25 16:58N 33°21' W 118°19'0 0.0
2017-Apr-25 16:28N 33°21' W 118°19'0 0.0
2017-Apr-25 15:55N 33°21' W 118°19'0 0.1
2017-Apr-25 15:28N 33°21' W 118°19'0 0.1
2017-Apr-25 15:01N 33°21' W 118°19'0 0.1
2017-Apr-25 14:22N 33°21' W 118°19'3 3.4
2017-Apr-25 13:30N 33°19' W 118°17'3 6.3
2017-Apr-25 13:00N 33°15' W 118°17'3 6.6
2017-Apr-25 12:30N 33°12' W 118°17'3 6.7
2017-Apr-25 12:00N 33°09' W 118°16'3 6.5
2017-Apr-25 11:30N 33°06' W 118°17'3 6.1
2017-Apr-25 11:00N 33°03' W 118°14'3 6.4
2017-Apr-25 10:30N 33°01' W 118°11'3 6.6
2017-Apr-25 10:00N 32°59' W 118°08'3 6.4
2017-Apr-25 09:30N 32°57' W 118°06'3 6.6
2017-Apr-25 09:00N 32°54' W 118°03'3 6.8
2017-Apr-25 08:30N 32°52' W 117°60'3 6.5
2017-Apr-25 08:00N 32°50' W 117°58'3 6.9
2017-Apr-25 07:31N 32°46' W 117°56'3 6.9
2017-Apr-25 07:00N 32°43' W 117°54'3 6.8
2017-Apr-25 06:31N 32°40' W 117°53'3 6.8
2017-Apr-25 06:00N 32°37' W 117°51'3 6.5
2017-Apr-25 05:30N 32°34' W 117°51'4 7.1
2017-Apr-25 05:00N 32°30' W 117°52'4 7.5
2017-Apr-25 04:30N 32°27' W 117°53'4 7.2
2017-Apr-25 04:00N 32°23' W 117°55'4 7.1
2017-Apr-25 03:30N 32°20' W 117°56'3 7.0
2017-Apr-25 03:00N 32°17' W 117°57'4 6.6
2017-Apr-25 02:26N 32°13' W 117°58'3 6.8
2017-Apr-25 02:00N 32°10' W 117°59'10 6.8
2017-Apr-25 00:30N 32°00' W 118°03'3 6.9
2017-Apr-25 00:01N 31°57' W 118°04'4 7.2
2017-Apr-24 23:30N 31°54' W 118°06'4 7.1
2017-Apr-24 22:59N 31°51' W 118°08'4 7.3
2017-Apr-24 22:29N 31°47' W 118°10'4 7.8
2017-Apr-24 21:59N 31°44' W 118°12'4 7.1
2017-Apr-24 21:29N 31°40' W 118°11'5 6.9
2017-Apr-24 20:49N 31°37' W 118°07'3 6.5
2017-Apr-24 20:18N 31°36' W 118°03'4 7.3
2017-Apr-24 19:43N 31°37' W 117°59'3 7.2
2017-Apr-24 19:20N 31°38' W 117°55'2 7.3
2017-Apr-24 19:00N 31°38' W 117°53'4 7.1
2017-Apr-24 18:27N 31°39' W 117°48'3 7.5
2017-Apr-24 18:00N 31°41' W 117°45'4 7.7
2017-Apr-24 17:28N 31°45' W 117°42'1913.4
2017-Apr-24 16:04N 32°03' W 117°39'114.9
2017-Apr-24 16:00N 32°04' W 117°39'714.2
2017-Apr-24 15:31N 32°11' W 117°40'4 7.4
2017-Apr-24 15:00N 32°15' W 117°41'3 6.7
2017-Apr-24 14:31N 32°18' W 117°42'7 6.9
2017-Apr-24 13:30N 32°25' W 117°43'3 6.8
2017-Apr-24 13:01N 32°28' W 117°44'3 6.5
2017-Apr-24 12:30N 32°31' W 117°45'3 6.5
2017-Apr-24 12:00N 32°35' W 117°45'3 6.5
2017-Apr-24 11:31N 32°38' W 117°46'3 6.5
2017-Apr-24 11:01N 32°41' W 117°48'3 6.5
2017-Apr-24 10:30N 32°44' W 117°49'3 6.6
2017-Apr-24 10:01N 32°47' W 117°50'3 6.5
2017-Apr-24 09:30N 32°50' W 117°52'3 6.2
2017-Apr-24 09:01N 32°53' W 117°54'3 6.3
2017-Apr-24 08:30N 32°55' W 117°56'3 6.4
2017-Apr-24 08:01N 32°58' W 117°56'3 6.3
2017-Apr-24 07:30N 33°01' W 117°58'3 6.3
2017-Apr-24 07:00N 33°04' W 117°59'3 6.3
2017-Apr-24 06:30N 33°07' W 118°00'3 6.5
2017-Apr-24 06:01N 33°10' W 118°02'3 6.5
2017-Apr-24 05:30N 33°13' W 118°03'3 6.5
2017-Apr-24 05:00N 33°16' W 118°05'3 6.6
2017-Apr-24 04:30N 33°19' W 118°06'3 6.5
2017-Apr-24 04:01N 33°22' W 118°08'3 6.4
2017-Apr-24 03:30N 33°25' W 118°09'3 6.4
2017-Apr-24 03:00N 33°28' W 118°10'3 6.5
2017-Apr-24 02:30N 33°31' W 118°12'4 7.2
2017-Apr-24 02:00N 33°35' W 118°13'611.0
2017-Apr-24 01:30N 33°40' W 118°12'5 9.3
2017-Apr-24 01:00N 33°45' W 118°11'0 0.4
2017-Apr-24 00:28N 33°45' W 118°11'0 0.0
2017-Apr-23 23:58N 33°45' W 118°11'0 0.0
2017-Apr-23 23:19N 33°45' W 118°11'0 0.0
2017-Apr-23 22:58N 33°45' W 118°11'0 0.0
2017-Apr-23 22:30N 33°45' W 118°11'0 0.0
2017-Apr-23 21:57N 33°45' W 118°11'0 0.0
2017-Apr-23 21:30N 33°45' W 118°11'0 0.0
2017-Apr-23 20:54N 33°45' W 118°11'0 0.0
2017-Apr-23 20:30N 33°45' W 118°11'0 0.0
2017-Apr-23 19:59N 33°45' W 118°11'0 0.0
2017-Apr-23 19:29N 33°45' W 118°11'0 0.0
2017-Apr-23 18:56N 33°45' W 118°11'0 0.0
2017-Apr-23 18:29N 33°45' W 118°11'0 0.0
2017-Apr-23 17:59N 33°45' W 118°11'0 0.0
2017-Apr-23 17:28N 33°45' W 118°11'0 0.0
2017-Apr-23 16:58N 33°45' W 118°11'0 0.0
2017-Apr-23 16:28N 33°45' W 118°11'0 0.0
2017-Apr-23 15:55N 33°45' W 118°11'0 0.0
2017-Apr-23 15:30N 33°45' W 118°11'0 0.0
2017-Apr-23 15:00N 33°45' W 118°11'0 0.0
2017-Apr-23 14:00N 33°45' W 118°11'0 0.0
2017-Apr-23 13:30N 33°45' W 118°11'0 0.0
2017-Apr-23 12:56N 33°45' W 118°11'0 0.6
2017-Apr-23 12:30N 33°45' W 118°11'3 6.7
2017-Apr-23 12:00N 33°42' W 118°11'510.8
2017-Apr-23 11:30N 33°36' W 118°10'611.5
2017-Apr-23 11:00N 33°31' W 118°08'611.6
2017-Apr-23 10:30N 33°25' W 118°05'611.8
2017-Apr-23 10:01N 33°20' W 118°03'714.3
2017-Apr-23 09:30N 33°13' W 117°59'815.0
2017-Apr-23 09:00N 33°07' W 117°55'715.0
2017-Apr-23 08:30N 32°59' W 117°52'714.9
2017-Apr-23 08:00N 32°52' W 117°50'815.2
2017-Apr-23 07:31N 32°45' W 117°48'815.1
2017-Apr-23 07:00N 32°38' W 117°46'714.8
2017-Apr-23 06:30N 32°31' W 117°42'714.9
2017-Apr-23 06:00N 32°24' W 117°39'714.7
2017-Apr-23 05:30N 32°18' W 117°34'714.9
2017-Apr-23 05:00N 32°12' W 117°28'814.9
2017-Apr-23 04:30N 32°08' W 117°21'714.9
2017-Apr-23 04:00N 32°03' W 117°14'714.8
2017-Apr-23 03:30N 31°59' W 117°07'814.8
2017-Apr-23 03:00N 31°56' W 116°58'18 1.4
2017-Apr-22 13:56N 31°50' W 116°39'3 7.8
2017-Apr-22 13:30N 31°50' W 116°43'11 6.3
2017-Apr-22 11:45N 31°52' W 116°55'2 6.8
2017-Apr-22 11:30N 31°52' W 116°57'3 6.7
2017-Apr-22 11:00N 31°51' W 117°01'3 6.7
2017-Apr-22 10:30N 31°50' W 117°05'3 6.7
2017-Apr-22 10:00N 31°50' W 117°09'3 6.7
2017-Apr-22 09:30N 31°49' W 117°13'3 6.6
2017-Apr-22 09:00N 31°48' W 117°17'3 6.4
2017-Apr-22 08:30N 31°48' W 117°20'3 6.6
2017-Apr-22 08:00N 31°47' W 117°24'3 7.0
2017-Apr-22 07:30N 31°46' W 117°28'3 6.9
2017-Apr-22 07:00N 31°45' W 117°32'3 6.8
2017-Apr-22 06:30N 31°43' W 117°35'3 6.7
2017-Apr-22 06:00N 31°42' W 117°39'3 6.7
2017-Apr-22 05:29N 31°41' W 117°43'3 6.8
2017-Apr-22 05:00N 31°40' W 117°47'3 6.3
2017-Apr-22 04:30N 31°38' W 117°49'3 6.8
2017-Apr-22 04:00N 31°35' W 117°50'3 6.8
2017-Apr-22 03:30N 31°31' W 117°50'3 6.9
2017-Apr-22 03:00N 31°28' W 117°51'3 6.9
2017-Apr-22 02:30N 31°25' W 117°52'3 6.9
2017-Apr-22 02:00N 31°21' W 117°53'3 6.1
2017-Apr-22 01:30N 31°20' W 117°57'3 6.6
2017-Apr-22 01:00N 31°20' W 118°00'3 6.6
2017-Apr-22 00:30N 31°20' W 118°04'3 6.6
2017-Apr-22 00:00N 31°21' W 118°08'3 6.5
2017-Apr-21 23:30N 31°21' W 118°12'3 6.7
2017-Apr-21 23:00N 31°22' W 118°16'4 7.2
2017-Apr-21 22:30N 31°26' W 118°16'4 7.1
2017-Apr-21 22:00N 31°29' W 118°17'3 6.3
2017-Apr-21 21:30N 31°32' W 118°15'3 6.9
2017-Apr-21 21:00N 31°35' W 118°13'3 7.0
2017-Apr-21 20:30N 31°38' W 118°12'4 7.1
2017-Apr-21 20:00N 31°41' W 118°10'4 7.0
2017-Apr-21 19:30N 31°45' W 118°09'4 7.1
2017-Apr-21 19:00N 31°48' W 118°07'4 7.1
2017-Apr-21 18:30N 31°51' W 118°06'4 7.1
2017-Apr-21 18:00N 31°55' W 118°05'4 7.1
2017-Apr-21 17:30N 31°58' W 118°03'4 7.1
2017-Apr-21 17:00N 32°01' W 118°01'4 7.1
2017-Apr-21 16:30N 32°05' W 117°60'4 7.2
2017-Apr-21 16:00N 32°08' W 117°59'4 7.1
2017-Apr-21 15:30N 32°11' W 117°57'3 6.7
2017-Apr-21 15:00N 32°14' W 117°55'3 6.7
2017-Apr-21 14:30N 32°18' W 117°54'7 6.8
2017-Apr-21 13:30N 32°24' W 117°51'3 6.6
2017-Apr-21 13:00N 32°27' W 117°50'3 6.7
2017-Apr-21 12:30N 32°30' W 117°48'3 6.8
2017-Apr-21 12:00N 32°33' W 117°47'3 6.8
2017-Apr-21 11:30N 32°37' W 117°46'3 7.0
2017-Apr-21 11:00N 32°40' W 117°46'4 7.0
2017-Apr-21 10:30N 32°44' W 117°47'3 6.7
2017-Apr-21 10:00N 32°47' W 117°48'3 6.9
2017-Apr-21 09:30N 32°50' W 117°49'3 6.0
2017-Apr-21 09:00N 32°53' W 117°50'3 6.0
2017-Apr-21 08:30N 32°56' W 117°51'3 6.5
2017-Apr-21 08:00N 32°59' W 117°53'3 6.6
2017-Apr-21 07:30N 33°01' W 117°55'3 6.6
2017-Apr-21 07:00N 33°04' W 117°57'3 6.7
2017-Apr-21 06:30N 33°07' W 117°59'3 6.7
2017-Apr-21 06:00N 33°10' W 118°00'3 6.7
2017-Apr-21 05:30N 33°13' W 118°02'3 6.4
2017-Apr-21 05:00N 33°16' W 118°04'3 6.3
2017-Apr-21 04:30N 33°19' W 118°06'3 6.3
2017-Apr-21 04:00N 33°22' W 118°07'3 6.3
2017-Apr-21 03:30N 33°25' W 118°09'3 6.5
2017-Apr-21 03:00N 33°28' W 118°10'3 6.5
2017-Apr-21 02:30N 33°31' W 118°11'3 6.8
2017-Apr-21 02:00N 33°34' W 118°13'510.7
2017-Apr-21 01:30N 33°39' W 118°12'510.2
2017-Apr-21 01:00N 33°44' W 118°11'1 1.6
2017-Apr-21 00:30N 33°45' W 118°11'0 0.0
2017-Apr-21 00:00N 33°45' W 118°11'0 0.0
2017-Apr-20 23:30N 33°45' W 118°11'0 0.0
2017-Apr-20 22:59N 33°45' W 118°11'0 0.0
2017-Apr-20 22:29N 33°45' W 118°11'0 0.0
2017-Apr-20 21:59N 33°45' W 118°11'0 0.0
2017-Apr-20 21:29N 33°45' W 118°11'0 0.0
2017-Apr-20 20:59N 33°45' W 118°11'0 0.0
2017-Apr-20 20:25N 33°45' W 118°11'0 0.0
2017-Apr-20 19:58N 33°45' W 118°11'0 0.0
2017-Apr-20 19:28N 33°45' W 118°11'0 0.0
2017-Apr-20 18:58N 33°45' W 118°11'0 0.0
2017-Apr-20 18:30N 33°45' W 118°11'0 0.0
2017-Apr-20 18:00N 33°45' W 118°11'0 0.0
2017-Apr-20 17:30N 33°45' W 118°11'0 0.0
2017-Apr-20 17:00N 33°45' W 118°11'0 0.0
2017-Apr-20 16:30N 33°45' W 118°11'0 0.0
2017-Apr-20 15:35N 33°45' W 118°11'0 0.0
2017-Apr-20 15:29N 33°45' W 118°11'0 0.0
2017-Apr-20 14:59N 33°45' W 118°11'  
Track history (hours):
 
Tides and Currents Weather Stations Pressure Air Temp Water Temp Dewpoint Dewpoint Depression Visibility Wind Speed Wind Dir Waves Ship Positions

Imagination

Operator: Carnival Cruise Lines

Last reported at 2017-Apr-30 14:29 UTC. Time now 2017-Apr-30 14:53 UTC.
Position N 33°45' W 118°11'.

Type: Ship. MMSI: 309933000.

Date/timePositionNaut miles runAvg speedWind from/ knotsBaromVisibWave heightAir tempDewpointWater temp
2017-Apr-30 14:29N 33°45' W 118°11'0 0.0
2017-Apr-30 13:28N 33°45' W 118°11'0 0.0
2017-Apr-30 12:58N 33°45' W 118°11'0 0.8
2017-Apr-30 12:31N 33°45' W 118°11'4 7.1
2017-Apr-30 12:00N 33°41' W 118°11'510.2
2017-Apr-30 11:31N 33°36' W 118°10'611.4
2017-Apr-30 11:00N 33°31' W 118°07'611.4
2017-Apr-30 10:31N 33°25' W 118°05'611.5
2017-Apr-30 10:01N 33°20' W 118°03'611.8
2017-Apr-30 09:30N 33°14' W 118°01'713.5
2017-Apr-30 09:01N 33°08' W 117°58'815.6
2017-Apr-30 08:30N 33°01' W 117°55'815.7
2017-Apr-30 08:01N 32°53' W 117°52'815.6
2017-Apr-30 07:30N 32°46' W 117°48'815.1
2017-Apr-30 07:00N 32°39' W 117°46'815.2
2017-Apr-30 06:30N 32°32' W 117°43'815.5
2017-Apr-30 06:00N 32°25' W 117°39'815.7
2017-Apr-30 05:30N 32°18' W 117°34'815.3
2017-Apr-30 05:00N 32°12' W 117°28'714.8
2017-Apr-30 04:30N 32°07' W 117°23'714.5
2017-Apr-30 04:00N 32°02' W 117°16'714.8
2017-Apr-30 03:30N 31°59' W 117°08'814.5
2017-Apr-30 02:57N 31°56' W 116°59'613.9
2017-Apr-30 02:30N 31°54' W 116°52'713.8
2017-Apr-30 02:00N 31°51' W 116°45'13 0.9
2017-Apr-29 11:10N 31°51' W 117°00'1 6.3
2017-Apr-29 11:00N 31°51' W 117°01'3 6.2
2017-Apr-29 10:30N 31°50' W 117°05'3 6.1
2017-Apr-29 10:01N 31°50' W 117°08'3 6.3
2017-Apr-29 09:30N 31°49' W 117°12'3 6.2
2017-Apr-29 09:00N 31°48' W 117°16'3 6.3
2017-Apr-29 08:31N 31°48' W 117°19'3 6.5
2017-Apr-29 08:01N 31°47' W 117°23'3 6.1
2017-Apr-29 07:30N 31°46' W 117°26'3 6.3
2017-Apr-29 07:00N 31°46' W 117°30'4 6.3
2017-Apr-29 06:26N 31°45' W 117°34'3 6.3
2017-Apr-29 05:58N 31°44' W 117°38'3 6.3
2017-Apr-29 05:30N 31°43' W 117°41'3 6.4
2017-Apr-29 05:00N 31°43' W 117°44'3 6.6
2017-Apr-29 04:30N 31°41' W 117°48'3 6.4
2017-Apr-29 04:00N 31°38' W 117°49'3 6.6
2017-Apr-29 03:30N 31°34' W 117°49'3 6.6
2017-Apr-29 03:00N 31°31' W 117°49'3 6.7
2017-Apr-29 02:30N 31°28' W 117°50'3 6.9
2017-Apr-29 02:00N 31°25' W 117°52'3 6.5
2017-Apr-29 01:30N 31°22' W 117°53'3 6.7
2017-Apr-29 01:00N 31°21' W 117°57'4 7.0
2017-Apr-29 00:30N 31°22' W 118°01'3 6.4
2017-Apr-29 00:00N 31°22' W 118°05'3 6.5
2017-Apr-28 23:30N 31°22' W 118°09'3 5.9
2017-Apr-28 23:00N 31°24' W 118°12'4 7.1
2017-Apr-28 22:30N 31°28' W 118°12'3 7.0
2017-Apr-28 22:00N 31°31' W 118°13'3 7.0
2017-Apr-28 21:30N 31°34' W 118°13'3 7.0
2017-Apr-28 21:00N 31°38' W 118°13'3 6.9
2017-Apr-28 20:30N 31°41' W 118°12'3 6.8
2017-Apr-28 20:00N 31°44' W 118°10'4 7.4
2017-Apr-28 19:28N 31°47' W 118°08'3 7.4
2017-Apr-28 19:00N 31°51' W 118°06'4 7.2
2017-Apr-28 18:30N 31°54' W 118°05'4 7.1
2017-Apr-28 18:01N 31°57' W 118°03'4 7.1
2017-Apr-28 17:28N 32°01' W 118°02'3 7.1
2017-Apr-28 17:01N 32°04' W 118°00'4233.7
2017-Apr-28 17:00N 32°00' W 118°00'715.2 320 / 201013.710.8 15.011.616.7
2017-Apr-28 16:31N 32°07' W 117°59'4 7.3
2017-Apr-28 15:59N 32°11' W 117°57'4 7.3
2017-Apr-28 15:30N 32°14' W 117°55'4 7.1
2017-Apr-28 15:00N 32°17' W 117°54'7 7.2
2017-Apr-28 14:00N 32°24' W 117°51'4 7.1
2017-Apr-28 13:31N 32°27' W 117°50'3 7.0
2017-Apr-28 13:00N 32°31' W 117°48'3 6.9
2017-Apr-28 12:31N 32°34' W 117°47'3 6.9
2017-Apr-28 12:01N 32°37' W 117°46'4 7.1
2017-Apr-28 11:30N 32°41' W 117°47'4 7.1
2017-Apr-28 11:00N 32°44' W 117°47'3 7.0
2017-Apr-28 10:30N 32°48' W 117°48'3 7.0
2017-Apr-28 10:01N 32°51' W 117°49'4 7.0
2017-Apr-28 09:30N 32°54' W 117°50'3 6.9
2017-Apr-28 09:00N 32°58' W 117°52'3 6.9
2017-Apr-28 08:31N 33°01' W 117°54'3 6.7
2017-Apr-28 08:01N 33°03' W 117°56'4 7.1
2017-Apr-28 07:31N 33°07' W 117°58'4 7.1
2017-Apr-28 07:00N 33°10' W 118°00'3 7.0
2017-Apr-28 06:30N 33°13' W 118°02'3 6.9
2017-Apr-28 06:00N 33°16' W 118°04'3 7.0
2017-Apr-28 05:30N 33°19' W 118°06'3 6.9
2017-Apr-28 05:01N 33°22' W 118°08'4 7.0
2017-Apr-28 04:30N 33°25' W 118°09'3 7.0
2017-Apr-28 04:00N 33°29' W 118°10'3 7.0
2017-Apr-28 03:31N 33°32' W 118°12'5 9.2
2017-Apr-28 03:01N 33°36' W 118°13'611.1
2017-Apr-28 02:30N 33°42' W 118°11'3 5.8
2017-Apr-28 01:57N 33°45' W 118°11'0 0.0
2017-Apr-28 01:27N 33°45' W 118°11'0 0.0
2017-Apr-28 00:57N 33°45' W 118°11'0 0.0
2017-Apr-28 00:30N 33°45' W 118°11'0 0.0
2017-Apr-27 23:56N 33°45' W 118°11'0 0.0
2017-Apr-27 23:23N 33°45' W 118°11'0 0.0
2017-Apr-27 22:59N 33°45' W 118°11'0 0.0
2017-Apr-27 22:29N 33°45' W 118°11'0 0.0
2017-Apr-27 21:58N 33°45' W 118°11'0 0.0
2017-Apr-27 21:28N 33°45' W 118°11'0 0.0
2017-Apr-27 20:58N 33°45' W 118°11'0 0.0
2017-Apr-27 20:28N 33°45' W 118°11'0 0.0
2017-Apr-27 19:58N 33°45' W 118°11'0 0.0
2017-Apr-27 19:27N 33°45' W 118°11'0 0.0
2017-Apr-27 18:57N 33°45' W 118°11'0 0.0
2017-Apr-27 15:33N 33°45' W 118°11'0 0.0
2017-Apr-27 15:21N 33°45' W 118°11'0 0.0
2017-Apr-27 14:57N 33°45' W 118°11'0 0.0
2017-Apr-27 13:45N 33°45' W 118°11'0 0.0
2017-Apr-27 13:14N 33°45' W 118°11'0 0.0
2017-Apr-27 12:56N 33°45' W 118°11'0 0.7
2017-Apr-27 12:30N 33°45' W 118°11'4 7.9
2017-Apr-27 12:00N 33°41' W 118°11'5 9.7
2017-Apr-27 11:30N 33°36' W 118°10'611.5
2017-Apr-27 11:00N 33°31' W 118°07'611.7
2017-Apr-27 10:30N 33°25' W 118°05'611.8
2017-Apr-27 10:00N 33°20' W 118°02'815.3
2017-Apr-27 09:31N 33°13' W 117°59'815.1
2017-Apr-27 09:01N 33°06' W 117°56'714.7
2017-Apr-27 08:31N 32°59' W 117°52'714.5
2017-Apr-27 08:01N 32°53' W 117°48'714.0
2017-Apr-27 07:30N 32°46' W 117°47'714.2
2017-Apr-27 07:00N 32°39' W 117°46'714.2
2017-Apr-27 06:31N 32°32' W 117°43'714.4
2017-Apr-27 06:00N 32°25' W 117°39'714.9
2017-Apr-27 05:31N 32°19' W 117°35'1215.1
2017-Apr-27 04:42N 32°10' W 117°26'314.7
2017-Apr-27 04:30N 32°08' W 117°23'814.6
2017-Apr-27 03:59N 32°02' W 117°17'15 0.9
2017-Apr-26 11:12N 31°57' W 117°00'3 7.3
2017-Apr-26 10:49N 31°58' W 117°03'3 8.1
2017-Apr-26 10:30N 31°59' W 117°06'5 9.9
2017-Apr-26 10:00N 32°01' W 117°12'5 9.8
2017-Apr-26 09:30N 32°03' W 117°16'5 9.8
2017-Apr-26 09:00N 32°07' W 117°21'5 9.4
2017-Apr-26 08:30N 32°10' W 117°25'5 9.4
2017-Apr-26 08:00N 32°13' W 117°29'5 9.5
2017-Apr-26 07:31N 32°16' W 117°33'5 9.2
2017-Apr-26 07:00N 32°20' W 117°36'5 9.7
2017-Apr-26 06:30N 32°24' W 117°39'510.0
2017-Apr-26 06:00N 32°28' W 117°42'510.0
2017-Apr-26 05:30N 32°32' W 117°46'5 9.8
2017-Apr-26 05:00N 32°36' W 117°49'510.0
2017-Apr-26 04:30N 32°41' W 117°51'510.2
2017-Apr-26 04:00N 32°46' W 117°53'510.3
2017-Apr-26 03:30N 32°50' W 117°56'510.3
2017-Apr-26 03:00N 32°55' W 117°59'510.0
2017-Apr-26 02:30N 32°59' W 118°02'510.2
2017-Apr-26 02:00N 33°04' W 118°05'510.0
2017-Apr-26 01:30N 33°08' W 118°08'5 9.9
2017-Apr-26 01:00N 33°12' W 118°11'5 9.8
2017-Apr-26 00:30N 33°17' W 118°13'5 9.8
2017-Apr-26 00:00N 33°20' W 118°18'1 2.1
2017-Apr-25 23:22N 33°21' W 118°19'0 0.0
2017-Apr-25 22:55N 33°21' W 118°19'0 0.0
2017-Apr-25 22:28N 33°21' W 118°19'0 0.1
2017-Apr-25 22:00N 33°21' W 118°19'0 0.1
2017-Apr-25 21:27N 33°21' W 118°19'0 0.1
2017-Apr-25 21:00N 33°21' W 118°19'0 0.0
2017-Apr-25 20:30N 33°21' W 118°19'0 0.1
2017-Apr-25 20:00N 33°21' W 118°19'0 0.0
2017-Apr-25 19:29N 33°21' W 118°19'0 0.0
2017-Apr-25 18:59N 33°21' W 118°19'0 0.0
2017-Apr-25 18:29N 33°21' W 118°19'0 0.0
2017-Apr-25 17:59N 33°21' W 118°19'0 0.0
2017-Apr-25 17:29N 33°21' W 118°19'0 0.0
2017-Apr-25 16:58N 33°21' W 118°19'0 0.0
2017-Apr-25 16:28N 33°21' W 118°19'0 0.0
2017-Apr-25 15:55N 33°21' W 118°19'0 0.1
2017-Apr-25 15:28N 33°21' W 118°19'0 0.1
2017-Apr-25 15:01N 33°21' W 118°19'0 0.1
2017-Apr-25 14:22N 33°21' W 118°19'3 3.4
2017-Apr-25 13:30N 33°19' W 118°17'3 6.3
2017-Apr-25 13:00N 33°15' W 118°17'3 6.6
2017-Apr-25 12:30N 33°12' W 118°17'3 6.7
2017-Apr-25 12:00N 33°09' W 118°16'3 6.5
2017-Apr-25 11:30N 33°06' W 118°17'3 6.1
2017-Apr-25 11:00N 33°03' W 118°14'3 6.4
2017-Apr-25 10:30N 33°01' W 118°11'3 6.6
2017-Apr-25 10:00N 32°59' W 118°08'3 6.4
2017-Apr-25 09:30N 32°57' W 118°06'3 6.6
2017-Apr-25 09:00N 32°54' W 118°03'3 6.8
2017-Apr-25 08:30N 32°52' W 117°60'3 6.5
2017-Apr-25 08:00N 32°50' W 117°58'3 6.9
2017-Apr-25 07:31N 32°46' W 117°56'3 6.9
2017-Apr-25 07:00N 32°43' W 117°54'3 6.8
2017-Apr-25 06:31N 32°40' W 117°53'3 6.8
2017-Apr-25 06:00N 32°37' W 117°51'3 6.5
2017-Apr-25 05:30N 32°34' W 117°51'4 7.1
2017-Apr-25 05:00N 32°30' W 117°52'4 7.5
2017-Apr-25 04:30N 32°27' W 117°53'4 7.2
2017-Apr-25 04:00N 32°23' W 117°55'4 7.1
2017-Apr-25 03:30N 32°20' W 117°56'3 7.0
2017-Apr-25 03:00N 32°17' W 117°57'4 6.6
2017-Apr-25 02:26N 32°13' W 117°58'3 6.8
2017-Apr-25 02:00N 32°10' W 117°59'10 6.8
2017-Apr-25 00:30N 32°00' W 118°03'3 6.9
2017-Apr-25 00:01N 31°57' W 118°04'4 7.2
2017-Apr-24 23:30N 31°54' W 118°06'4 7.1
2017-Apr-24 22:59N 31°51' W 118°08'4 7.3
2017-Apr-24 22:29N 31°47' W 118°10'4 7.8
2017-Apr-24 21:59N 31°44' W 118°12'4 7.1
2017-Apr-24 21:29N 31°40' W 118°11'5 6.9
2017-Apr-24 20:49N 31°37' W 118°07'3 6.5
2017-Apr-24 20:18N 31°36' W 118°03'4 7.3
2017-Apr-24 19:43N 31°37' W 117°59'3 7.2
2017-Apr-24 19:20N 31°38' W 117°55'2 7.3
2017-Apr-24 19:00N 31°38' W 117°53'4 7.1
2017-Apr-24 18:27N 31°39' W 117°48'3 7.5
2017-Apr-24 18:00N 31°41' W 117°45'4 7.7
2017-Apr-24 17:28N 31°45' W 117°42'1913.4
2017-Apr-24 16:04N 32°03' W 117°39'114.9
2017-Apr-24 16:00N 32°04' W 117°39'714.2
2017-Apr-24 15:31N 32°11' W 117°40'4 7.4
2017-Apr-24 15:00N 32°15' W 117°41'3 6.7
2017-Apr-24 14:31N 32°18' W 117°42'7 6.9
2017-Apr-24 13:30N 32°25' W 117°43'3 6.8
2017-Apr-24 13:01N 32°28' W 117°44'3 6.5
2017-Apr-24 12:30N 32°31' W 117°45'3 6.5
2017-Apr-24 12:00N 32°35' W 117°45'3 6.5
2017-Apr-24 11:31N 32°38' W 117°46'3 6.5
2017-Apr-24 11:01N 32°41' W 117°48'3 6.5
2017-Apr-24 10:30N 32°44' W 117°49'3 6.6
2017-Apr-24 10:01N 32°47' W 117°50'3 6.5
2017-Apr-24 09:30N 32°50' W 117°52'3 6.2
2017-Apr-24 09:01N 32°53' W 117°54'3 6.3
2017-Apr-24 08:30N 32°55' W 117°56'3 6.4
2017-Apr-24 08:01N 32°58' W 117°56'3 6.3
2017-Apr-24 07:30N 33°01' W 117°58'3 6.3
2017-Apr-24 07:00N 33°04' W 117°59'3 6.3
2017-Apr-24 06:30N 33°07' W 118°00'3 6.5
2017-Apr-24 06:01N 33°10' W 118°02'3 6.5
2017-Apr-24 05:30N 33°13' W 118°03'3 6.5
2017-Apr-24 05:00N 33°16' W 118°05'3 6.6
2017-Apr-24 04:30N 33°19' W 118°06'3 6.5
2017-Apr-24 04:01N 33°22' W 118°08'3 6.4
2017-Apr-24 03:30N 33°25' W 118°09'3 6.4
2017-Apr-24 03:00N 33°28' W 118°10'3 6.5
2017-Apr-24 02:30N 33°31' W 118°12'4 7.2
2017-Apr-24 02:00N 33°35' W 118°13'611.0
2017-Apr-24 01:30N 33°40' W 118°12'5 9.3
2017-Apr-24 01:00N 33°45' W 118°11'0 0.4
2017-Apr-24 00:28N 33°45' W 118°11'0 0.0
2017-Apr-23 23:58N 33°45' W 118°11'0 0.0
2017-Apr-23 23:19N 33°45' W 118°11'0 0.0
2017-Apr-23 22:58N 33°45' W 118°11'0 0.0
2017-Apr-23 22:30N 33°45' W 118°11'0 0.0
2017-Apr-23 21:57N 33°45' W 118°11'0 0.0
2017-Apr-23 21:30N 33°45' W 118°11'0 0.0
2017-Apr-23 20:54N 33°45' W 118°11'0 0.0
2017-Apr-23 20:30N 33°45' W 118°11'0 0.0
2017-Apr-23 19:59N 33°45' W 118°11'0 0.0
2017-Apr-23 19:29N 33°45' W 118°11'0 0.0
2017-Apr-23 18:56N 33°45' W 118°11'0 0.0
2017-Apr-23 18:29N 33°45' W 118°11'0 0.0
2017-Apr-23 17:59N 33°45' W 118°11'0 0.0
2017-Apr-23 17:28N 33°45' W 118°11'0 0.0
2017-Apr-23 16:58N 33°45' W 118°11'0 0.0
2017-Apr-23 16:28N 33°45' W 118°11'0 0.0
2017-Apr-23 15:55N 33°45' W 118°11'0 0.0
2017-Apr-23 15:30N 33°45' W 118°11'0 0.0
2017-Apr-23 15:00N 33°45' W 118°11'0 0.0
2017-Apr-23 14:00N 33°45' W 118°11'0 0.0
2017-Apr-23 13:30N 33°45' W 118°11'0 0.0
2017-Apr-23 12:56N 33°45' W 118°11'0 0.6
2017-Apr-23 12:30N 33°45' W 118°11'3 6.7
2017-Apr-23 12:00N 33°42' W 118°11'510.8
2017-Apr-23 11:30N 33°36' W 118°10'611.5
2017-Apr-23 11:00N 33°31' W 118°08'611.6
2017-Apr-23 10:30N 33°25' W 118°05'611.8
2017-Apr-23 10:01N 33°20' W 118°03'714.3
2017-Apr-23 09:30N 33°13' W 117°59'815.0
2017-Apr-23 09:00N 33°07' W 117°55'715.0
2017-Apr-23 08:30N 32°59' W 117°52'714.9
2017-Apr-23 08:00N 32°52' W 117°50'815.2
2017-Apr-23 07:31N 32°45' W 117°48'815.1
2017-Apr-23 07:00N 32°38' W 117°46'714.8
2017-Apr-23 06:30N 32°31' W 117°42'714.9
2017-Apr-23 06:00N 32°24' W 117°39'714.7
2017-Apr-23 05:30N 32°18' W 117°34'714.9
2017-Apr-23 05:00N 32°12' W 117°28'814.9
2017-Apr-23 04:30N 32°08' W 117°21'714.9
2017-Apr-23 04:00N 32°03' W 117°14'714.8
2017-Apr-23 03:30N 31°59' W 117°07'814.8
2017-Apr-23 03:00N 31°56' W 116°58'18 1.4
2017-Apr-22 13:56N 31°50' W 116°39'3 7.8
2017-Apr-22 13:30N 31°50' W 116°43'11 6.3
2017-Apr-22 11:45N 31°52' W 116°55'2 6.8
2017-Apr-22 11:30N 31°52' W 116°57'3 6.7
2017-Apr-22 11:00N 31°51' W 117°01'3 6.7
2017-Apr-22 10:30N 31°50' W 117°05'3 6.7
2017-Apr-22 10:00N 31°50' W 117°09'3 6.7
2017-Apr-22 09:30N 31°49' W 117°13'3 6.6
2017-Apr-22 09:00N 31°48' W 117°17'3 6.4
2017-Apr-22 08:30N 31°48' W 117°20'3 6.6
2017-Apr-22 08:00N 31°47' W 117°24'3 7.0
2017-Apr-22 07:30N 31°46' W 117°28'3 6.9
2017-Apr-22 07:00N 31°45' W 117°32'3 6.8
2017-Apr-22 06:30N 31°43' W 117°35'3 6.7
2017-Apr-22 06:00N 31°42' W 117°39'3 6.7
2017-Apr-22 05:29N 31°41' W 117°43'3 6.8
2017-Apr-22 05:00N 31°40' W 117°47'3 6.3
2017-Apr-22 04:30N 31°38' W 117°49'3 6.8
2017-Apr-22 04:00N 31°35' W 117°50'3 6.8
2017-Apr-22 03:30N 31°31' W 117°50'3 6.9
2017-Apr-22 03:00N 31°28' W 117°51'3 6.9
2017-Apr-22 02:30N 31°25' W 117°52'3 6.9
2017-Apr-22 02:00N 31°21' W 117°53'3 6.1
2017-Apr-22 01:30N 31°20' W 117°57'3 6.6
2017-Apr-22 01:00N 31°20' W 118°00'3 6.6
2017-Apr-22 00:30N 31°20' W 118°04'3 6.6
2017-Apr-22 00:00N 31°21' W 118°08'3 6.5
2017-Apr-21 23:30N 31°21' W 118°12'3 6.7
2017-Apr-21 23:00N 31°22' W 118°16'4 7.2
2017-Apr-21 22:30N 31°26' W 118°16'4 7.1
2017-Apr-21 22:00N 31°29' W 118°17'3 6.3
2017-Apr-21 21:30N 31°32' W 118°15'3 6.9
2017-Apr-21 21:00N 31°35' W 118°13'3 7.0
2017-Apr-21 20:30N 31°38' W 118°12'4 7.1
2017-Apr-21 20:00N 31°41' W 118°10'4 7.0
2017-Apr-21 19:30N 31°45' W 118°09'4 7.1
2017-Apr-21 19:00N 31°48' W 118°07'4 7.1
2017-Apr-21 18:30N 31°51' W 118°06'4 7.1
2017-Apr-21 18:00N 31°55' W 118°05'4 7.1
2017-Apr-21 17:30N 31°58' W 118°03'4 7.1
2017-Apr-21 17:00N 32°01' W 118°01'4 7.1
2017-Apr-21 16:30N 32°05' W 117°60'4 7.2
2017-Apr-21 16:00N 32°08' W 117°59'4 7.1
2017-Apr-21 15:30N 32°11' W 117°57'3 6.7
2017-Apr-21 15:00N 32°14' W 117°55'3 6.7
2017-Apr-21 14:30N 32°18' W 117°54'7 6.8
2017-Apr-21 13:30N 32°24' W 117°51'3 6.6
2017-Apr-21 13:00N 32°27' W 117°50'3 6.7
2017-Apr-21 12:30N 32°30' W 117°48'3 6.8
2017-Apr-21 12:00N 32°33' W 117°47'3 6.8
2017-Apr-21 11:30N 32°37' W 117°46'3 7.0
2017-Apr-21 11:00N 32°40' W 117°46'4 7.0
2017-Apr-21 10:30N 32°44' W 117°47'3 6.7
2017-Apr-21 10:00N 32°47' W 117°48'3 6.9
2017-Apr-21 09:30N 32°50' W 117°49'3 6.0
2017-Apr-21 09:00N 32°53' W 117°50'3 6.0
2017-Apr-21 08:30N 32°56' W 117°51'3 6.5
2017-Apr-21 08:00N 32°59' W 117°53'3 6.6
2017-Apr-21 07:30N 33°01' W 117°55'3 6.6
2017-Apr-21 07:00N 33°04' W 117°57'3 6.7
2017-Apr-21 06:30N 33°07' W 117°59'3 6.7
2017-Apr-21 06:00N 33°10' W 118°00'3 6.7
2017-Apr-21 05:30N 33°13' W 118°02'3 6.4
2017-Apr-21 05:00N 33°16' W 118°04'3 6.3
2017-Apr-21 04:30N 33°19' W 118°06'3 6.3
2017-Apr-21 04:00N 33°22' W 118°07'3 6.3
2017-Apr-21 03:30N 33°25' W 118°09'3 6.5
2017-Apr-21 03:00N 33°28' W 118°10'3 6.5
2017-Apr-21 02:30N 33°31' W 118°11'3 6.8
2017-Apr-21 02:00N 33°34' W 118°13'510.7
2017-Apr-21 01:30N 33°39' W 118°12'510.2
2017-Apr-21 01:00N 33°44' W 118°11'1 1.6
2017-Apr-21 00:30N 33°45' W 118°11'0 0.0
2017-Apr-21 00:00N 33°45' W 118°11'0 0.0
2017-Apr-20 23:30N 33°45' W 118°11'0 0.0
2017-Apr-20 22:59N 33°45' W 118°11'0 0.0
2017-Apr-20 22:29N 33°45' W 118°11'0 0.0
2017-Apr-20 21:59N 33°45' W 118°11'0 0.0
2017-Apr-20 21:29N 33°45' W 118°11'0 0.0
2017-Apr-20 20:59N 33°45' W 118°11'0 0.0
2017-Apr-20 20:25N 33°45' W 118°11'0 0.0
2017-Apr-20 19:58N 33°45' W 118°11'0 0.0
2017-Apr-20 19:28N 33°45' W 118°11'0 0.0
2017-Apr-20 18:58N 33°45' W 118°11'0 0.0
2017-Apr-20 18:30N 33°45' W 118°11'0 0.0
2017-Apr-20 18:00N 33°45' W 118°11'0 0.0
2017-Apr-20 17:30N 33°45' W 118°11'0 0.0
2017-Apr-20 17:00N 33°45' W 118°11'0 0.0
2017-Apr-20 16:30N 33°45' W 118°11'0 0.0
2017-Apr-20 15:35N 33°45' W 118°11'0 0.0
2017-Apr-20 15:29N 33°45' W 118°11'0 0.0
2017-Apr-20 14:59N 33°45' W 118°11'  

Dump ship's entire track history